Tiempo atmosférico en la estación meteorológica de Isaba/Izaba, Navarra (820 m.)



Fecha
DESCASC
Temp. máxima en grados centígrados (hora)
DESCASC
Temp. mínima en grados centígrados (hora)
DESCASC
Temp. media en grados centígrados
DESCASC
Racha de viento máxima en m/sg (hora)
DESCASC
Velocidad máxima media en intervalos de 10 minutos(hora)
DESCASC
Precipitaciones diarias en mm
DESCASC
Precipitaciones de 00:00 a 06:00 en mm
DESCASC
Precipitaciones de 06:00 a 12:00 en mm
DESCASC
Precipitaciones de 12:00 a 18:00 en mm
DESCASC
Precipitaciones de 18:00 a 24:00 en mm
DESCASC
15-07-2018 30 (15:20) 11.5 (07:20) 20.8 8.61 (19:30) 5.56 (19:40) 0 0 0 0 0
14-07-2018 30.6 (17:10) 13.4 (06:30) 22 14.44 (22:20) 6.67 (22:20) 6.4 2.2 0 0 4.2
13-07-2018 30.3 (16:10) 11.8 (04:10) 21 8.61 (18:00) 5.83 (18:00) 1.4 0 0 0 1.4
12-07-2018 26.2 (16:20) 11.5 (00:00) 18.9 11.11 (18:40) 7.22 (18:50) 1.8 0 1.8 0 0
11-07-2018 25.3 (12:50) 13.2 (00:00) 19.2 15.28 (17:00) 9.17 (15:30) 0.2 0 0 0 0.2
10-07-2018 25.3 (15:10) 13.6 (00:00) 19.4 13.89 (11:30) 8.89 (12:50) 0 0 0 0 0
09-07-2018 26.2 (14:20) 14.9 (00:00) 20.6 14.72 (17:00) 9.44 (16:00) 0 0 0 0 0
08-07-2018 31 (14:20) 14.1 (06:50) 22.6 11.39 (18:40) 7.5 (18:30) 4.8 4.6 0.2 0 0
07-07-2018 29.1 (15:30) 9.8 (00:00) 19.5 9.72 (17:00) 6.11 (17:00) 0 0 0 0 0
06-07-2018 26 (13:10) 8.9 (00:00) 17.4 11.11 (19:10) 7.78 (17:10) 0 0 0 0 0
05-07-2018 21.2 (18:20) 10.6 (05:40) 15.9 12.78 (16:00) 7.22 (17:40) 0 0 0 0 0
04-07-2018 28.6 (14:30) 11.4 (06:50) 20 14.44 (15:50) 6.94 (17:30) 8.4 0 0 7.4 1
03-07-2018 28.3 (16:00) 10.5 (06:50) 19.4 9.17 (14:30) 4.17 (15:30) 0 0 0 0 0
02-07-2018 27.7 (16:50) 13.5 (06:10) 20.6 7.5 (16:10) 3.89 (00:10) 0 0 0 0 0
01-07-2018 30.1 (17:50) 13.5 (00:00) 21.8 8.06 (14:50) 3.61 (11:30) 0.2 0.2 0 0 0
30-06-2018 29.6 (17:10) 14.8 (07:40) 22.2 12.22 (13:50) 5.83 (15:50) 0.4 0.4 0 0 0
29-06-2018 29 (16:50) 13.3 (00:00) 21.2 7.5 (18:10) 5 (18:10) 7 0 4 0 3
28-06-2018 25.5 (13:40) 12.6 (00:00) 19.1 12.5 (15:50) 9.17 (15:50) 0 0 0 0 0
27-06-2018 32 (13:20) 11.9 (00:00) 21.9 9.72 (16:30) 6.67 (16:20) 0 0 0 0 0
26-06-2018 30.8 (16:30) 9.9 (00:00) 20.3 8.61 (18:00) 6.11 (17:40) 0 0 0 0 0
25-06-2018 30.6 (14:10) 8.2 (00:00) 19.4 10 (17:50) 7.5 (17:50) 0 0 0 0 0
24-06-2018 29.6 (13:20) 8.3 (00:00) 19 10 (17:30) 6.39 (17:10) 0 0 0 0 0
23-06-2018 25.7 (14:30) 9 (00:00) 17.4 13.33 (18:30) 8.89 (18:20) 0 0 0 0 0
22-06-2018 24.1 (12:30) 13.6 (05:40) 18.9 16.39 (17:10) 10.83 (16:00) 0 0 0 0 0
21-06-2018 29.7 (12:50) 13.9 (00:00) 21.8 12.22 (17:30) 7.78 (17:30) 0 0 0 0 0
20-06-2018 29.5 (16:20) 10.4 (00:00) 19.9 10.28 (19:10) 6.11 (19:10) 0.6 0 0 0 0.6
19-06-2018 28.2 (15:50) 8 (00:00) 18.1 12.5 (01:00) 6.67 (01:00) 0 0 0 0 0
18-06-2018 20.7 (14:40) 8.5 (00:00) 14.6 16.67 (15:10) 10.56 (15:10) 0 0 0 0 0
17-06-2018 21.8 (15:10) 5.2 (00:00) 13.5 16.11 (18:30) 10.28 (18:00) 0 0 0 0 0

Gráficas

Temp. máximas Temp. mínimas Temp. medias Precipitaciones Rachas de viento máximas Velocidades máximas media en intervalos de 10 minutos

Datos horarios

Fecha y hora oficial Temperatura (ºC) Velocidad del viento (km/h) Dirección del viento Racha (km/h) Dirección de racha Precipitación (mm) Presión (hPa) Tendencia (hPa) Humedad (%)
2018-07-16 23:00:00 15 14 Nordeste 32 Nordeste 0 -- -- 89
2018-07-16 22:00:00 14.7 13 Nordeste 26 Nordeste 0 -- -- 92
2018-07-16 21:00:00 15.1 13 Nordeste 25 Nordeste 0 -- -- 89
2018-07-16 20:00:00 16.1 15 Nordeste 25 Nordeste 0 -- -- 88
2018-07-16 19:00:00 15.2 12 Nordeste 27 Nordeste 0.2 -- -- 95
2018-07-16 18:00:00 16.3 17 Nordeste 33 Nordeste 0 -- -- 87
2018-07-16 17:00:00 18.8 22 Nordeste 35 Nordeste 0 -- -- 76
2018-07-16 16:00:00 17.8 12 Norte 22 Norte 0 -- -- 84
2018-07-16 15:00:00 18.3 14 Nordeste 27 Norte 1 -- -- 91
2018-07-16 14:00:00 19.1 14 Nordeste 31 Este 0 -- -- 70
2018-07-16 13:00:00 18.3 15 Nordeste 28 Nordeste 0 -- -- 75
2018-07-16 12:00:00 16.8 16 Norte 32 Norte 0 -- -- 81
2018-07-16 11:00:00 18.7 10 Nordeste 35 Nordeste 0 -- -- 75
2018-07-16 10:00:00 16.2 15 Nordeste 30 Nordeste 0 -- -- 82
2018-07-16 09:00:00 15.9 14 Nordeste 30 Noroeste 0 -- -- 81
2018-07-16 08:00:00 15.9 10 Nordeste 41 Norte 0 -- -- 87
2018-07-16 07:00:00 16.7 17 Nordeste 36 Nordeste 0 -- -- 83
2018-07-16 06:00:00 16.2 13 Norte 23 Nordeste 0 -- -- 87
2018-07-16 05:00:00 16.7 11 Norte 28 Norte 0 -- -- 85
2018-07-16 04:00:00 17.1 13 Nordeste 25 Nordeste 0 -- -- 83
2018-07-16 03:00:00 16.5 14 Norte 33 Noroeste 0 -- -- 85
2018-07-16 02:00:00 17.3 11 Norte 29 Norte 0 -- -- 82
2018-07-16 01:00:00 17 5 Norte 19 Nordeste 0 -- -- 88
2018-07-16 00:00:00 18 10 Nordeste 30 Este 0 -- -- 88
2018-07-15 23:00:00 17.8 14 Norte 24 Norte 0 -- -- 89
2018-07-15 22:00:00 19 3 Nordeste 27 Nordeste 0 -- -- 82
2018-07-15 21:00:00 20.1 14 Nordeste 29 Nordeste 0 -- -- 80
2018-07-15 20:00:00 23 17 Nordeste 31 Nordeste 0 -- -- 68
2018-07-15 19:00:00 25.1 15 Nordeste 30 Nordeste 0 -- -- 62
2018-07-15 18:00:00 27.3 7 Oeste 25 Oeste 0 -- -- 35
2018-07-15 17:00:00 29.6 3 Sur 21 Oeste 0 -- -- 43
2018-07-15 16:00:00 29.2 5 Sudoeste 28 Sur 0 -- -- 37
2018-07-15 15:00:00 28.7 8 Sudoeste 26 Sudoeste 0 -- -- 37
2018-07-15 14:00:00 27.8 11 Sur 23 Sudoeste 0 -- -- 36
2018-07-15 13:00:00 27.2 10 Sudoeste 20 Sudoeste 0 -- -- 41
2018-07-15 12:00:00 25 12 Sur 19 Sur 0 -- -- 60
2018-07-15 11:00:00 22.5 0 Calma 5 Nordeste 0 -- -- 75
2018-07-15 10:00:00 18.5 3 Norte 6 Nordeste 0 -- -- 92
2018-07-15 09:00:00 14.5 3 Norte 8 Noroeste 0 -- -- 100
2018-07-15 08:00:00 12 4 Norte 10 Norte 0 -- -- 100
2018-07-15 07:00:00 11.6 4 Norte 11 Nordeste 0 -- -- 100
2018-07-15 06:00:00 12 5 Norte 12 Noroeste 0 -- -- 100
2018-07-15 05:00:00 12.4 4 Norte 13 Norte 0 -- -- 100
2018-07-15 04:00:00 12.6 3 Norte 13 Norte 0 -- -- 100
2018-07-15 03:00:00 13.1 7 Norte 15 Norte 0 -- -- 100
2018-07-15 02:00:00 13.5 6 Norte 14 Nordeste 0 -- -- 99
2018-07-15 01:00:00 13.8 3 Norte 10 Norte 0 -- -- 98
2018-07-15 00:00:00 14.5 3 Norte 19 Norte 2 -- -- 97
2018-07-14 23:00:00 14.6 4 Norte 52 Noroeste 2.2 -- -- 97
2018-07-14 22:00:00 20.5 7 Norte 22 Nordeste 0 -- -- 83
2018-07-14 21:00:00 20.5 5 Norte 19 Este 0 -- -- 82
2018-07-14 20:00:00 24.1 10 Nordeste 22 Nordeste 0 -- -- 64
2018-07-14 19:00:00 25.7 8 Noroeste 14 Norte 0 -- -- 60
2018-07-14 18:00:00 27.2 2 Oeste 20 Sur 0 -- -- 49
2018-07-14 17:00:00 30.1 6 Sur 23 Sudoeste 0 -- -- 41
2018-07-14 16:00:00 29.1 8 Sudoeste 23 Sur 0 -- -- 44
2018-07-14 15:00:00 28.6 8 Sudoeste 26 Sur 0 -- -- 42
2018-07-14 14:00:00 27.3 10 Sur 26 Sur 0 -- -- 45
2018-07-14 13:00:00 26.3 12 Sur 26 Sur 0 -- -- 55
2018-07-14 12:00:00 24.8 8 Sur 16 Sur 0 -- -- 60
2018-07-14 11:00:00 22.5 2 Nordeste 6 Nordeste 0 -- -- 77
2018-07-14 10:00:00 19.1 0 Calma 7 Norte 0 -- -- 83
2018-07-14 09:00:00 16.1 3 Norte 8 Nordeste 0 -- -- 99
2018-07-14 08:00:00 14.3 6 Nordeste 12 Nordeste 0 -- -- 100
2018-07-14 07:00:00 14 4 Nordeste 10 Norte 0 -- -- 100
2018-07-14 06:00:00 13.6 3 Norte 9 Norte 0 -- -- 100
2018-07-14 05:00:00 14.8 3 Nordeste 12 Este 0.2 -- -- 100
2018-07-14 04:00:00 15.1 4 Nordeste 18 Norte 2 -- -- 100
2018-07-14 03:00:00 14.8 4 Noroeste 18 Nordeste 0 -- -- 100
2018-07-14 02:00:00 14.7 5 Norte 14 Norte 0 -- -- 99
2018-07-14 01:00:00 14.8 7 Norte 13 Norte 0 -- -- 99
2018-07-14 00:00:00 15.3 2 Noroeste 12 Norte 0 -- -- 98
2018-07-13 23:00:00 16 4 Norte 14 Noroeste 0 -- -- 98
2018-07-13 22:00:00 16.2 4 Norte 30 Nordeste 0.2 -- -- 96
2018-07-13 21:00:00 19.7 11 Sudoeste 28 Noroeste 1.2 -- -- 87
2018-07-13 20:00:00 20.8 6 Nordeste 20 Nordeste 0 -- -- 84
2018-07-13 19:00:00 22.5 8 Nordeste 27 Nordeste 0 -- -- 76
2018-07-13 18:00:00 23.7 21 Nordeste 31 Este 0 -- -- 70
2018-07-13 17:00:00 27.2 15 Norte 30 Norte 0 -- -- 60
2018-07-13 16:00:00 28.5 8 Sur 19 Sur 0 -- -- 46
2018-07-13 15:00:00 28 9 Sur 22 Sudoeste 0 -- -- 48
2018-07-13 14:00:00 28.4 11 Sur 22 Sur 0 -- -- 45
2018-07-13 13:00:00 27.5 11 Sudoeste 20 Sur 0 -- -- 51
2018-07-13 12:00:00 25.8 7 Este 30 Nordeste 0 -- -- 63
2018-07-13 11:00:00 26.3 7 Nordeste 22 Nordeste 0 -- -- 60
2018-07-13 10:00:00 20.9 11 Nordeste 24 Nordeste 0 -- -- 76
2018-07-13 09:00:00 16.8 0 Calma 5 Nordeste 0 -- -- 88
2018-07-13 08:00:00 12.7 2 Nordeste 6 Noroeste 0 -- -- 99
2018-07-13 07:00:00 12.5 0 Calma 6 Norte 0 -- -- 99
2018-07-13 06:00:00 12 4 Norte 9 Norte 0 -- -- 99
2018-07-13 05:00:00 11.8 2 Norte 7 Norte 0 -- -- 99
2018-07-13 04:00:00 11.9 3 Noroeste 11 Norte 0 -- -- 99
2018-07-13 03:00:00 12.5 5 Norte 13 Norte 0 -- -- 99
2018-07-13 02:00:00 12.6 3 Norte 8 Noroeste 0 -- -- 98
2018-07-13 01:00:00 13.6 5 Norte 12 Norte 0 -- -- 97
2018-07-13 00:00:00 13.6 3 Norte 9 Noroeste 0 -- -- 96
2018-07-12 23:00:00 14.8 5 Norte 14 Nordeste 0 -- -- 93
2018-07-12 22:00:00 17 9 Nordeste 26 Este 0 -- -- 81
2018-07-12 21:00:00 17.6 13 Nordeste 29 Este 0 -- -- 80
2018-07-12 20:00:00 19.2 21 Nordeste 36 Nordeste 0 -- -- 73
2018-07-12 19:00:00 21.2 24 Nordeste 40 Nordeste 0 -- -- 68
2018-07-12 18:00:00 22.5 24 Nordeste 33 Nordeste 0 -- -- 65
2018-07-12 17:00:00 23.6 4 Norte 18 Nordeste 0 -- -- 63
2018-07-12 16:00:00 22.9 10 Norte 23 Norte 0 -- -- 71
2018-07-12 15:00:00 23.9 15 Norte 24 Norte 0 -- -- 67
2018-07-12 14:00:00 24.7 5 Nordeste 13 Nordeste 0 -- -- 65
2018-07-12 13:00:00 22.1 4 Nordeste 12 Este 0 -- -- 77
2018-07-12 12:00:00 19.4 0 Calma 4 Nordeste 0 -- -- 85
2018-07-12 11:00:00 18.2 0 Calma 14 Sur 0 -- -- 94
2018-07-12 10:00:00 15.3 3 Sur 6 Sur 1.8 -- -- 94
2018-07-12 09:00:00 15.7 3 Nordeste 6 Norte 0 -- -- 99
2018-07-12 08:00:00 13.1 5 Norte 8 Norte 0 -- -- 99
2018-07-12 07:00:00 11.6 3 Nordeste 7 Norte 0 -- -- 100
2018-07-12 06:00:00 12.3 3 Norte 14 Este 0 -- -- 98
2018-07-12 05:00:00 12.7 3 Noroeste 8 Oeste 0 -- -- 99
2018-07-12 04:00:00 12.4 0 Calma 8 Nordeste 0 -- -- 98
2018-07-12 03:00:00 12.3 4 Norte 6 Norte 0 -- -- 98
2018-07-12 02:00:00 12.9 2 Norte 9 Norte 0 -- -- 97
2018-07-12 01:00:00 13.1 4 Noroeste 8 Noroeste 0 -- -- 97
2018-07-12 00:00:00 14.2 0 Calma 10 Noroeste 0.2 -- -- 94
2018-07-11 23:00:00 16.3 2 Oeste 12 Norte 0 -- -- 80
2018-07-11 22:00:00 16.6 3 Norte 18 Este 0 -- -- 78
2018-07-11 21:00:00 17.9 8 Nordeste 21 Este 0 -- -- 72
2018-07-11 20:00:00 21 6 Nordeste 32 Nordeste 0 -- -- 63
2018-07-11 19:00:00 20.6 11 Nordeste 31 Norte 0 -- -- 65
2018-07-11 18:00:00 21.8 12 Nordeste 52 Este 0 -- -- 64
2018-07-11 17:00:00 20.9 31 Nordeste 55 Nordeste 0 -- -- 64
2018-07-11 16:00:00 22.8 32 Nordeste 46 Nordeste 0 -- -- 64
2018-07-11 15:00:00 24.2 31 Nordeste 44 Nordeste 0 -- -- 60
2018-07-11 14:00:00 25.1 27 Nordeste 38 Nordeste 0 -- -- 57
2018-07-11 13:00:00 25.2 22 Nordeste 33 Nordeste 0 -- -- 58
2018-07-11 12:00:00 24.8 17 Nordeste 29 Nordeste 0 -- -- 57
2018-07-11 11:00:00 23.4 15 Nordeste 30 Nordeste 0 -- -- 59
2018-07-11 10:00:00 21.5 15 Nordeste 29 Nordeste 0 -- -- 62
2018-07-11 09:00:00 18.3 6 Nordeste 16 Sudeste 0 -- -- 76
2018-07-11 08:00:00 13.9 4 Noroeste 10 Noroeste 0 -- -- 90
2018-07-11 07:00:00 13.2 3 Noroeste 10 Norte 0 -- -- 91
2018-07-11 06:00:00 13.8 3 Noroeste 10 Noroeste 0 -- -- 88
2018-07-11 05:00:00 15.2 5 Norte 15 Nordeste 0 -- -- 83
2018-07-11 04:00:00 15.6 6 Nordeste 20 Noroeste 0 -- -- 84
2018-07-11 03:00:00 16 8 Nordeste 32 Norte 0 -- -- 83
2018-07-11 02:00:00 16.4 9 Nordeste 32 Norte 0 -- -- 80
2018-07-11 01:00:00 16.9 12 Norte 46 Noroeste 0 -- -- 77
2018-07-11 00:00:00 17.2 16 Norte 40 Norte 0 -- -- 77
2018-07-10 23:00:00 18.5 14 Norte 35 Norte 0 -- -- 78
2018-07-10 22:00:00 18.6 10 Norte 31 Noroeste 0 -- -- 80
2018-07-10 21:00:00 19.1 12 Norte 31 Nordeste 0 -- -- 78
2018-07-10 20:00:00 21.1 12 Nordeste 38 Nordeste 0 -- -- 71
2018-07-10 19:00:00 22.1 21 Nordeste 40 Nordeste 0 -- -- 64
2018-07-10 18:00:00 22.5 16 Nordeste 43 Nordeste 0 -- -- 65
2018-07-10 17:00:00 24.2 23 Nordeste 48 Nordeste 0 -- -- 61
2018-07-10 16:00:00 25 26 Nordeste 43 Nordeste 0 -- -- 58
2018-07-10 15:00:00 25.1 25 Nordeste 46 Nordeste 0 -- -- 57
2018-07-10 14:00:00 24.3 31 Nordeste 42 Nordeste 0 -- -- 58
2018-07-10 13:00:00 23.8 31 Nordeste 47 Nordeste 0 -- -- 61
2018-07-10 12:00:00 23.2 29 Nordeste 50 Este 0 -- -- 62
2018-07-10 11:00:00 22.8 25 Nordeste 42 Nordeste 0 -- -- 61
2018-07-10 10:00:00 22.1 12 Nordeste 27 Nordeste 0 -- -- 65
2018-07-10 09:00:00 18.9 0 Calma 6 Noroeste 0 -- -- 78
2018-07-10 08:00:00 13.9 3 Noroeste 7 Noroeste 0 -- -- 96
2018-07-10 07:00:00 13.9 3 Noroeste 11 Norte 0 -- -- 94
2018-07-10 06:00:00 14.6 4 Sudoeste 13 Noroeste 0 -- -- 91
2018-07-10 05:00:00 14.6 5 Noroeste 14 Nordeste 0 -- -- 91
2018-07-10 04:00:00 15.8 3 Norte 14 Norte 0 -- -- 86
2018-07-10 03:00:00 16.6 6 Nordeste 21 Nordeste 0 -- -- 84
2018-07-10 02:00:00 17.4 10 Norte 34 Norte 0 -- -- 81
2018-07-10 01:00:00 17.5 5 Nordeste 27 Norte 0 -- -- 80
2018-07-10 00:00:00 17.6 10 Norte 25 Noroeste 0 -- -- 81
2018-07-09 23:00:00 18.3 13 Norte 41 Norte 0 -- -- 79
2018-07-09 22:00:00 18.9 15 Norte 39 Norte 0 -- -- 77
2018-07-09 21:00:00 19.3 16 Norte 36 Nordeste 0 -- -- 72
2018-07-09 20:00:00 21.3 13 Nordeste 44 Este 0 -- -- 63
2018-07-09 19:00:00 22.2 17 Nordeste 46 Nordeste 0 -- -- 61
2018-07-09 18:00:00 23.7 16 Nordeste 45 Nordeste 0 -- -- 61
2018-07-09 17:00:00 24.2 32 Nordeste 53 Nordeste 0 -- -- 59
2018-07-09 16:00:00 24.2 34 Nordeste 46 Este 0 -- -- 58
2018-07-09 15:00:00 24.9 29 Nordeste 43 Nordeste 0 -- -- 57
2018-07-09 14:00:00 25.6 24 Nordeste 38 Nordeste 0 -- -- 57
2018-07-09 13:00:00 24.8 25 Nordeste 44 Nordeste 0 -- -- 59
2018-07-09 12:00:00 23.6 28 Nordeste 45 Nordeste 0 -- -- 60
2018-07-09 11:00:00 23.5 22 Nordeste 35 Nordeste 0 -- -- 61
2018-07-09 10:00:00 21.9 15 Nordeste 31 Nordeste 0 -- -- 64
2018-07-09 09:00:00 20.1 6 Nordeste 16 Noroeste 0 -- -- 74
2018-07-09 08:00:00 16.7 7 Norte 20 Norte 0 -- -- 86
2018-07-09 07:00:00 15.2 10 Norte 25 Norte 0 -- -- 93
2018-07-09 06:00:00 15.2 6 Noroeste 12 Norte 0 -- -- 94
2018-07-09 05:00:00 15 3 Norte 15 Noroeste 0 -- -- 95
2018-07-09 04:00:00 15.4 5 Norte 14 Norte 0 -- -- 93
2018-07-09 03:00:00 15.7 6 Norte 13 Norte 0 -- -- 92
2018-07-09 02:00:00 15.1 3 Norte 11 Norte 0 -- -- 95
2018-07-09 01:00:00 15.7 5 Norte 11 Noroeste 0 -- -- 91
2018-07-09 00:00:00 16.3 7 Norte 18 Norte 0 -- -- 90
2018-07-08 23:00:00 17.2 4 Norte 14 Nordeste 0 -- -- 87
2018-07-08 22:00:00 18.9 4 Norte 26 Nordeste 0 -- -- 78
2018-07-08 21:00:00 20.1 8 Nordeste 31 Este 0 -- -- 76
2018-07-08 20:00:00 22.2 18 Nordeste 37 Este 0 -- -- 70
2018-07-08 19:00:00 23.6 21 Nordeste 41 Nordeste 0 -- -- 65
2018-07-08 18:00:00 24.9 24 Nordeste 39 Nordeste 0 -- -- 65
2018-07-08 17:00:00 26.3 21 Nordeste 29 Nordeste 0 -- -- 62
2018-07-08 16:00:00 27.2 18 Nordeste 26 Nordeste 0 -- -- 58
2018-07-08 15:00:00 28.6 6 Noroeste 13 Nordeste 0 -- -- 56
2018-07-08 14:00:00 30.2 4 Norte 8 Norte 0 -- -- 46
2018-07-08 13:00:00 28.1 0 Calma 9 Este 0 -- -- 55
2018-07-08 12:00:00 24.8 4 Nordeste 10 Nordeste 0 -- -- 74
2018-07-08 11:00:00 21.9 5 Nordeste 9 Nordeste 0 -- -- 85
2018-07-08 10:00:00 19.5 4 Norte 17 Nordeste 0 -- -- 90
2018-07-08 09:00:00 16.9 8 Nordeste 16 Nordeste 0 -- -- 97
2018-07-08 08:00:00 15 3 Nordeste 7 Nordeste 0.2 -- -- 100
2018-07-08 07:00:00 14.3 0 Calma 11 Nordeste 0 -- -- 100
2018-07-08 06:00:00 14.3 3 Norte 8 Norte 0 -- -- 99
2018-07-08 05:00:00 14.8 3 Nordeste 11 Este 0.8 -- -- 98
2018-07-08 04:00:00 15.4 0 Calma 13 Nordeste 0.6 -- -- 98
2018-07-08 03:00:00 16 6 Nordeste 19 Sur 3.2 -- -- 98
2018-07-08 02:00:00 15.4 2 Oeste 15 Norte 0 -- -- 99
2018-07-08 01:00:00 15.4 8 Norte 14 Norte 0 -- -- 98
2018-07-08 00:00:00 16.1 6 Norte 14 Norte 0 -- -- 98
2018-07-07 23:00:00 16.3 7 Norte 13 Norte 0 -- -- 97
2018-07-07 22:00:00 17.3 7 Norte 17 Noroeste 0 -- -- 95
2018-07-07 21:00:00 19.3 6 Norte 13 Norte 0 -- -- 89
2018-07-07 20:00:00 21.2 7 Norte 18 Nordeste 0 -- -- 80
2018-07-07 19:00:00 21.5 6 Nordeste 29 Nordeste 0 -- -- 81
2018-07-07 18:00:00 21.9 16 Nordeste 31 Nordeste 0 -- -- 75
2018-07-07 17:00:00 22.3 22 Nordeste 35 Nordeste 0 -- -- 72
2018-07-07 16:00:00 28.3 7 Sudoeste 21 Sudoeste 0 -- -- 53
2018-07-07 15:00:00 28.4 10 Sur 21 Sur 0 -- -- 42
2018-07-07 14:00:00 27.8 10 Sur 22 Sur 0 -- -- 42
2018-07-07 13:00:00 26.9 11 Sur 21 Sudoeste 0 -- -- 45
2018-07-07 12:00:00 25.2 9 Sur 22 Sudoeste 0 -- -- 53
2018-07-07 11:00:00 23.6 0 Calma 5 Noroeste 0 -- -- 55
2018-07-07 10:00:00 20.8 4 Nordeste 13 Nordeste 0 -- -- 69
2018-07-07 09:00:00 16.2 3 Nordeste 8 Este 0 -- -- 83
2018-07-07 08:00:00 12.1 2 Norte 9 Norte 0 -- -- 98
2018-07-07 07:00:00 10.4 4 Norte 10 Nordeste 0 -- -- 99
2018-07-07 06:00:00 9.8 5 Norte 11 Norte 0 -- -- 99
2018-07-07 05:00:00 10.2 5 Norte 12 Norte 0 -- -- 99
2018-07-07 04:00:00 10.8 6 Norte 12 Norte 0 -- -- 98
2018-07-07 03:00:00 11.1 4 Norte 10 Noroeste 0 -- -- 98
2018-07-07 02:00:00 11.4 4 Norte 13 Noroeste 0 -- -- 98
2018-07-07 01:00:00 11.7 5 Norte 12 Norte 0 -- -- 97
2018-07-07 00:00:00 12.3 7 Norte 12 Norte 0 -- -- 96
2018-07-06 23:00:00 13.3 5 Norte 16 Nordeste 0 -- -- 92
2018-07-06 22:00:00 15.4 10 Nordeste 32 Nordeste 0 -- -- 81
2018-07-06 21:00:00 16.4 18 Nordeste 33 Nordeste 0 -- -- 77
2018-07-06 20:00:00 18.6 24 Nordeste 40 Nordeste 0 -- -- 68
2018-07-06 19:00:00 20 25 Nordeste 39 Nordeste 0 -- -- 64
2018-07-06 18:00:00 21.4 26 Nordeste 38 Nordeste 0 -- -- 62
2018-07-06 17:00:00 22.6 26 Nordeste 36 Nordeste 0 -- -- 59
2018-07-06 16:00:00 23.3 25 Nordeste 37 Nordeste 0 -- -- 57
2018-07-06 15:00:00 25.6 15 Nordeste 26 Nordeste 0 -- -- 53
2018-07-06 14:00:00 25 16 Nordeste 24 Nordeste 0 -- -- 52
2018-07-06 13:00:00 25.8 11 Nordeste 17 Nordeste 0 -- -- 53
2018-07-06 12:00:00 24.1 6 Nordeste 16 Nordeste 0 -- -- 50
2018-07-06 11:00:00 21.6 9 Nordeste 19 Este 0 -- -- 57
2018-07-06 10:00:00 19.3 3 Este 5 Nordeste 0 -- -- 67
2018-07-06 09:00:00 14.2 2 Norte 7 Noroeste 0 -- -- 78
2018-07-06 08:00:00 9.2 3 Norte 9 Norte 0 -- -- 98
2018-07-06 07:00:00 9.2 3 Norte 8 Noroeste 0 -- -- 96
2018-07-06 06:00:00 11.1 3 Oeste 14 Este 0 -- -- 87
2018-07-06 05:00:00 11.7 5 Nordeste 15 Nordeste 0 -- -- 87
2018-07-06 04:00:00 12.7 6 Nordeste 26 Noroeste 0 -- -- 82
2018-07-06 03:00:00 13 12 Norte 32 Noroeste 0 -- -- 83
2018-07-06 02:00:00 13.7 17 Norte 31 Norte 0 -- -- 83
2018-07-06 01:00:00 13.5 12 Norte 34 Norte 0 -- -- 84
2018-07-06 00:00:00 13.5 18 Norte 31 Nordeste 0 -- -- 86
2018-07-05 23:00:00 13.9 19 Nordeste 31 Nordeste 0 -- -- 86
2018-07-05 22:00:00 13.7 15 Nordeste 26 Nordeste 0 -- -- 89
2018-07-05 21:00:00 14.8 16 Nordeste 34 Nordeste 0 -- -- 85
2018-07-05 20:00:00 16.2 14 Nordeste 33 Nordeste 0 -- -- 80
2018-07-05 19:00:00 17.3 14 Nordeste 35 Norte 0 -- -- 74
2018-07-05 18:00:00 19.9 15 Norte 41 Nordeste 0 -- -- 68
2018-07-05 17:00:00 19.9 22 Nordeste 37 Nordeste 0 -- -- 61
2018-07-05 16:00:00 21.1 25 Nordeste 46 Nordeste 0 -- -- 61
2018-07-05 15:00:00 21.1 19 Nordeste 31 Nordeste 0 -- -- 63
2018-07-05 14:00:00 20.4 18 Nordeste 30 Norte 0 -- -- 68
2018-07-05 13:00:00 17.8 13 Norte 32 Nordeste 0 -- -- 79
2018-07-05 12:00:00 17.7 13 Nordeste 33 Este 0 -- -- 80
2018-07-05 11:00:00 17.7 15 Nordeste 33 Este 0 -- -- 76
2018-07-05 10:00:00 18 18 Nordeste 33 Nordeste 0 -- -- 76
2018-07-05 09:00:00 15.4 12 Nordeste 28 Norte 0 -- -- 95
2018-07-05 08:00:00 12.3 13 Norte 27 Nordeste 0 -- -- 99
2018-07-05 07:00:00 11.6 14 Norte 24 Norte 0 -- -- 100
2018-07-05 06:00:00 10.6 10 Norte 21 Norte 0 -- -- 100
2018-07-05 05:00:00 10.9 11 Norte 23 Norte 0 -- -- 100
2018-07-05 04:00:00 11.4 15 Norte 27 Norte 0 -- -- 99
2018-07-05 03:00:00 12 13 Norte 25 Nordeste 0 -- -- 97
2018-07-05 02:00:00 12.7 15 Norte 32 Norte 0 -- -- 96
2018-07-05 01:00:00 13 13 Norte 30 Norte 0 -- -- 98
2018-07-05 00:00:00 13.5 14 Norte 31 Noroeste 0 -- -- 98
2018-07-04 23:00:00 14.1 16 Norte 27 Nordeste 0 -- -- 99
2018-07-04 22:00:00 14.3 12 Norte 23 Norte 0 -- -- 99
2018-07-04 21:00:00 14.9 12 Nordeste 28 Nordeste 0 -- -- 97
2018-07-04 20:00:00 16 19 Nordeste 37 Nordeste 0 -- -- 94
2018-07-04 19:00:00 16 4 Norte 27 Noroeste 1 -- -- 99
2018-07-04 18:00:00 14.9 6 Nordeste 44 Norte 7.4 -- -- 97
2018-07-04 17:00:00 25.3 11 Sudoeste 39 Sudoeste 0 -- -- 41
2018-07-04 16:00:00 26.9 18 Sudoeste 52 Sudoeste 0 -- -- 31
2018-07-04 15:00:00 28.1 18 Sudoeste 39 Sudoeste 0 -- -- 33
2018-07-04 14:00:00 27.2 18 Sudoeste 35 Sur 0 -- -- 36
2018-07-04 13:00:00 28.3 8 Sur 32 Sudoeste 0 -- -- 38
2018-07-04 12:00:00 27.7 5 Sur 21 Sur 0 -- -- 40
2018-07-04 11:00:00 24.4 10 Sur 19 Sur 0 -- -- 49
2018-07-04 10:00:00 20.9 3 Norte 8 Nordeste 0 -- -- 75
2018-07-04 09:00:00 16.6 2 Norte 9 Noroeste 0 -- -- 87
2018-07-04 08:00:00 12.1 2 Norte 7 Norte 0 -- -- 100
2018-07-04 07:00:00 11.5 2 Nordeste 7 Norte 0 -- -- 100
2018-07-04 06:00:00 11.7 4 Norte 9 Norte 0 -- -- 99
2018-07-04 05:00:00 12.3 4 Norte 10 Noroeste 0 -- -- 98
2018-07-04 04:00:00 12.6 5 Norte 10 Norte 0 -- -- 98
2018-07-04 03:00:00 13.2 4 Norte 11 Norte 0 -- -- 97
2018-07-04 02:00:00 13.8 3 Norte 14 Noroeste 0 -- -- 96
2018-07-04 01:00:00 14.8 9 Norte 16 Norte 0 -- -- 92
2018-07-04 00:00:00 15 6 Noroeste 13 Norte 0 -- -- 91
2018-07-03 23:00:00 16 6 Norte 22 Nordeste 0 -- -- 86
2018-07-03 22:00:00 18.7 8 Nordeste 30 Este 0 -- -- 75
2018-07-03 21:00:00 19.4 11 Nordeste 19 Nordeste 0 -- -- 68
2018-07-03 20:00:00 24.7 5 Noroeste 13 Sudoeste 0 -- -- 39
2018-07-03 19:00:00 26.9 7 Sudoeste 26 Sur 0 -- -- 29
2018-07-03 18:00:00 27.8 6 Sur 23 Sudoeste 0 -- -- 34
2018-07-03 17:00:00 28.2 8 Sudoeste 31 Oeste 0 -- -- 35
2018-07-03 16:00:00 28.3 10 Sur 32 Sur 0 -- -- 34
2018-07-03 15:00:00 25.8 14 Sur 33 Sur 0 -- -- 41
2018-07-03 14:00:00 25.5 13 Sur 30 Sur 0 -- -- 45
2018-07-03 13:00:00 24.9 9 Sudoeste 26 Sur 0 -- -- 43
2018-07-03 12:00:00 23.4 11 Sudoeste 24 Sudoeste 0 -- -- 47
2018-07-03 11:00:00 23.6 6 Sur 13 Sur 0 -- -- 54
2018-07-03 10:00:00 20.3 2 Nordeste 6 Nordeste 0 -- -- 68
2018-07-03 09:00:00 15.6 2 Nordeste 8 Norte 0 -- -- 91
2018-07-03 08:00:00 11.1 3 Norte 7 Norte 0 -- -- 100
2018-07-03 07:00:00 10.5 3 Norte 8 Norte 0 -- -- 100
2018-07-03 06:00:00 10.9 5 Norte 10 Norte 0 -- -- 99
2018-07-03 05:00:00 11.3 4 Norte 9 Norte 0 -- -- 99
2018-07-03 04:00:00 11.6 4 Norte 9 Noroeste 0 -- -- 99
2018-07-03 03:00:00 12.2 5 Norte 9 Norte 0 -- -- 98
2018-07-03 02:00:00 12.8 5 Norte 10 Noroeste 0 -- -- 98
2018-07-03 01:00:00 13.4 3 Norte 10 Norte 0 -- -- 97
2018-07-03 00:00:00 14.1 3 Norte 8 Noroeste 0 -- -- 94
2018-07-02 23:00:00 14.9 4 Norte 12 Norte 0 -- -- 91
2018-07-02 22:00:00 16.5 6 Noroeste 10 Norte 0 -- -- 81
2018-07-02 21:00:00 19.5 2 Noroeste 9 Oeste 0 -- -- 64
2018-07-02 20:00:00 24.7 3 Oeste 15 Sudoeste 0 -- -- 47
2018-07-02 19:00:00 25.2 4 Sudoeste 18 Sudoeste 0 -- -- 42
2018-07-02 18:00:00 27 3 Sur 20 Sudoeste 0 -- -- 38
2018-07-02 17:00:00 26.4 7 Sur 27 Sur 0 -- -- 39
2018-07-02 16:00:00 26.6 6 Sur 23 Sudoeste 0 -- -- 39
2018-07-02 15:00:00 25.7 10 Sudoeste 26 Sur 0 -- -- 43
2018-07-02 14:00:00 25.3 10 Sur 23 Sur 0 -- -- 40
2018-07-02 13:00:00 24.7 11 Sudoeste 22 Sudoeste 0 -- -- 51
2018-07-02 12:00:00 23.1 11 Sur 22 Sur 0 -- -- 62
2018-07-02 11:00:00 22.3 12 Sur 24 Sur 0 -- -- 67
2018-07-02 10:00:00 21.1 2 Nordeste 8 Norte 0 -- -- 72
2018-07-02 09:00:00 17.7 5 Norte 10 Noroeste 0 -- -- 84
2018-07-02 08:00:00 14.5 4 Norte 13 Norte 0 -- -- 98
2018-07-02 07:00:00 13.7 7 Norte 13 Norte 0 -- -- 99
2018-07-02 06:00:00 13.6 4 Noroeste 10 Noroeste 0 -- -- 98
2018-07-02 05:00:00 13.8 3 Noroeste 8 Norte 0 -- -- 98
2018-07-02 04:00:00 14.6 3 Noroeste 18 Norte 0 -- -- 98
2018-07-02 03:00:00 14.6 4 Noroeste 7 Norte 0 -- -- 98
2018-07-02 02:00:00 15.2 5 Noroeste 8 Noroeste 0 -- -- 96
2018-07-02 01:00:00 16.3 4 Norte 22 Norte 0 -- -- 93
2018-07-02 00:00:00 18.6 7 Norte 24 Sur 0 -- -- 86
2018-07-01 23:00:00 17.9 4 Norte 7 Norte 0 -- -- 88
2018-07-01 22:00:00 18.8 0 Calma 5 Sur 0 -- -- 85
2018-07-01 21:00:00 20.4 0 Calma 10 Noroeste 0 -- -- 77
2018-07-01 20:00:00 22.3 0 Calma 12 Norte 0 -- -- 68
2018-07-01 19:00:00 22.9 2 Oeste 26 Sur 0 -- -- 61
2018-07-01 18:00:00 29.5 5 Oeste 20 Sudoeste 0 -- -- 35
2018-07-01 17:00:00 29.3 6 Sudoeste 22 Oeste 0 -- -- 36
2018-07-01 16:00:00 29 9 Sudoeste 28 Sudoeste 0 -- -- 38
2018-07-01 15:00:00 28.9 10 Oeste 29 Sudoeste 0 -- -- 43
2018-07-01 14:00:00 27.3 9 Sur 25 Sudoeste 0 -- -- 39
2018-07-01 13:00:00 26.9 12 Sur 23 Sur 0 -- -- 43
2018-07-01 12:00:00 25.8 11 Sudoeste 23 Sudoeste 0 -- -- 47
2018-07-01 11:00:00 25 4 Nordeste 11 Norte 0 -- -- 61
2018-07-01 10:00:00 21.7 3 Este 6 Este 0 -- -- 73
2018-07-01 09:00:00 18.2 2 Nordeste 6 Este 0 -- -- 91
2018-07-01 08:00:00 14.2 5 Norte 9 Norte 0 -- -- 100
2018-07-01 07:00:00 13.6 5 Norte 7 Norte 0 -- -- 100
2018-07-01 06:00:00 14.1 3 Noroeste 6 Noroeste 0 -- -- 99
2018-07-01 05:00:00 14.9 3 Noroeste 6 Noroeste 0 -- -- 98
2018-07-01 04:00:00 15.8 3 Sudoeste 5 Sudoeste 0.2 -- -- 97
2018-07-01 03:00:00 16 2 Oeste 6 Oeste 0 -- -- 97
2018-07-01 02:00:00 16.2 2 Noroeste 6 Noroeste 0 -- -- 96
2018-07-01 01:00:00 16.5 2 Norte 5 Nordeste 0 -- -- 96
2018-07-01 00:00:00 17.8 0 Calma 6 Norte 0 -- -- 91
2018-06-30 23:00:00 18.3 5 Norte 9 Noroeste 0 -- -- 88
2018-06-30 22:00:00 19.3 4 Noroeste 11 Norte 0 -- -- 84
2018-06-30 21:00:00 22.4 0 Calma 13 Noroeste 0 -- -- 71
2018-06-30 20:00:00 24.1 3 Sur 29 Sudoeste 0 -- -- 60
2018-06-30 19:00:00 26.3 13 Sudoeste 26 Sudoeste 0 -- -- 45
2018-06-30 18:00:00 27.8 13 Sudoeste 31 Sur 0 -- -- 45
2018-06-30 17:00:00 29.3 12 Sudoeste 33 Sudoeste 0 -- -- 43
2018-06-30 16:00:00 28.4 18 Sudeste 35 Sudeste 0 -- -- 44
2018-06-30 15:00:00 28.7 9 Sur 40 Sudoeste 0 -- -- 48
2018-06-30 14:00:00 27.3 17 Sudoeste 44 Sudoeste 0 -- -- 46
2018-06-30 13:00:00 26.6 13 Sudoeste 40 Sudoeste 0 -- -- 49
2018-06-30 12:00:00 25.5 11 Sur 33 Sudoeste 0 -- -- 51
2018-06-30 11:00:00 23.7 13 Sudoeste 27 Sur 0 -- -- 58
2018-06-30 10:00:00 21.5 14 Sudoeste 26 Sudoeste 0 -- -- 68
2018-06-30 09:00:00 18 2 Norte 14 Norte 0 -- -- 89
2018-06-30 08:00:00 15 7 Norte 18 Norte 0 -- -- 99
2018-06-30 07:00:00 15.1 7 Norte 19 Norte 0 -- -- 97
2018-06-30 06:00:00 16.1 4 Norte 22 Sur 0 -- -- 94
2018-06-30 05:00:00 16.3 6 Sudoeste 19 Sudoeste 0 -- -- 95
2018-06-30 04:00:00 16.2 11 Sur 19 Sur 0.2 -- -- 97
2018-06-30 03:00:00 16.4 7 Sudoeste 16 Sudoeste 0 -- -- 98
2018-06-30 02:00:00 15.7 2 Oeste 12 Nordeste 0 -- -- 99
2018-06-30 01:00:00 15.9 0 Calma 11 Nordeste 0.2 -- -- 99
2018-06-30 00:00:00 16.1 4 Nordeste 14 Nordeste 1.6 -- -- 98
2018-06-29 23:00:00 16.9 3 Este 13 Nordeste 1.4 -- -- 96
2018-06-29 22:00:00 17.5 5 Norte 22 Norte 0 -- -- 93
2018-06-29 21:00:00 18.7 10 Norte 19 Norte 0 -- -- 88
2018-06-29 20:00:00 20.3 12 Nordeste 26 Nordeste 0 -- -- 85
2018-06-29 19:00:00 22.1 12 Nordeste 27 Nordeste 0 -- -- 74
2018-06-29 18:00:00 24.6 18 Nordeste 26 Nordeste 0 -- -- 65
2018-06-29 17:00:00 28.1 7 Sudoeste 21 Sudoeste 0 -- -- 40
2018-06-29 16:00:00 27.5 8 Sur 23 Sur 0 -- -- 51
2018-06-29 15:00:00 27.5 9 Sur 22 Sudoeste 0 -- -- 46
2018-06-29 14:00:00 26.5 9 Sudoeste 26 Sudoeste 0 -- -- 51
2018-06-29 13:00:00 25.3 9 Sudoeste 22 Sudoeste 0 -- -- 56
2018-06-29 12:00:00 22.2 4 Sudoeste 20 Sur 0 -- -- 70
2018-06-29 11:00:00 19.1 10 Sudoeste 22 Sur 0 -- -- 85
2018-06-29 10:00:00 17.9 0 Calma 4 Norte 0 -- -- 93
2018-06-29 09:00:00 16.4 0 Calma 5 Nordeste 0 -- -- 98
2018-06-29 08:00:00 13.9 2 Norte 10 Norte 0 -- -- 99
2018-06-29 07:00:00 13.9 5 Nordeste 12 Sudoeste 4 -- -- 99
2018-06-29 06:00:00 13.9 0 Calma 8 Noroeste 0 -- -- 96
2018-06-29 05:00:00 13.9 2 Noroeste 8 Norte 0 -- -- 96
2018-06-29 04:00:00 13.6 3 Norte 7 Noroeste 0 -- -- 97
2018-06-29 03:00:00 13.4 4 Norte 8 Noroeste 0 -- -- 97
2018-06-29 02:00:00 13.7 3 Noroeste 10 Norte 0 -- -- 96
2018-06-29 01:00:00 13.9 4 Norte 11 Norte 0 -- -- 95
2018-06-29 00:00:00 14.3 4 Norte 10 Norte 0 -- -- 94
2018-06-28 23:00:00 15.7 6 Noroeste 14 Este 0 -- -- 88
2018-06-28 22:00:00 17.1 5 Nordeste 21 Este 0 -- -- 80
2018-06-28 21:00:00 18.1 10 Nordeste 35 Este 0 -- -- 77
2018-06-28 20:00:00 19 18 Nordeste 37 Nordeste 0 -- -- 76
2018-06-28 19:00:00 20.8 23 Nordeste 41 Nordeste 0 -- -- 70
2018-06-28 18:00:00 21.3 28 Nordeste 45 Nordeste 0 -- -- 69
2018-06-28 17:00:00 23.3 28 Nordeste 42 Nordeste 0 -- -- 62
2018-06-28 16:00:00 23.8 32 Nordeste 45 Nordeste 0 -- -- 63
2018-06-28 15:00:00 24 27 Nordeste 41 Este 0 -- -- 59
2018-06-28 14:00:00 25.2 26 Nordeste 38 Nordeste 0 -- -- 55
2018-06-28 13:00:00 23.6 23 Nordeste 36 Nordeste 0 -- -- 61
2018-06-28 12:00:00 24 19 Nordeste 31 Nordeste 0 -- -- 57
2018-06-28 11:00:00 22.2 22 Nordeste 30 Nordeste 0 -- -- 61
2018-06-28 10:00:00 21 16 Nordeste 26 Nordeste 0 -- -- 68
2018-06-28 09:00:00 17.3 2 Norte 6 Noroeste 0 -- -- 88
2018-06-28 08:00:00 13.2 2 Norte 7 Noroeste 0 -- -- 100
2018-06-28 07:00:00 12.6 3 Norte 7 Noroeste 0 -- -- 99
2018-06-28 06:00:00 13.2 3 Noroeste 12 Norte 0 -- -- 99
2018-06-28 05:00:00 13.9 4 Norte 13 Noroeste 0 -- -- 98
2018-06-28 04:00:00 14.8 7 Noroeste 14 Norte 0 -- -- 96
2018-06-28 03:00:00 16.3 6 Nordeste 16 Este 0 -- -- 93
2018-06-28 02:00:00 17.3 4 Sudeste 21 Nordeste 0 -- -- 88
2018-06-28 01:00:00 16.6 7 Nordeste 15 Nordeste 0 -- -- 95
2018-06-28 00:00:00 17 7 Nordeste 16 Nordeste 0 -- -- 93
2018-06-27 23:00:00 17.4 6 Norte 17 Nordeste 0 -- -- 92
2018-06-27 22:00:00 17.9 10 Nordeste 17 Nordeste 0 -- -- 91
2018-06-27 21:00:00 19 9 Nordeste 31 Nordeste 0 -- -- 85
2018-06-27 20:00:00 20.6 3 Este 27 Nordeste 0 -- -- 81
2018-06-27 19:00:00 23.2 18 Nordeste 25 Nordeste 0 -- -- 70
2018-06-27 18:00:00 22.5 13 Nordeste 29 Este 0 -- -- 72
2018-06-27 17:00:00 24 21 Nordeste 35 Nordeste 0 -- -- 67
2018-06-27 16:00:00 26.1 21 Nordeste 32 Nordeste 0 -- -- 64
2018-06-27 15:00:00 28.8 11 Norte 24 Norte 0 -- -- 60
2018-06-27 14:00:00 30.3 9 Norte 16 Norte 0 -- -- 55
2018-06-27 13:00:00 30.8 6 Norte 11 Norte 0 -- -- 55
2018-06-27 12:00:00 29.2 0 Calma 8 Nordeste 0 -- -- 57
2018-06-27 11:00:00 26.1 0 Calma 6 Este 0 -- -- 61
2018-06-27 10:00:00 18.7 3 Sur 5 Sur 0 -- -- 84
2018-06-27 09:00:00 18.2 0 Calma 8 Norte 0 -- -- 83
2018-06-27 08:00:00 14.5 3 Norte 7 Norte 0 -- -- 99
2018-06-27 07:00:00 12.2 5 Norte 10 Norte 0 -- -- 100
2018-06-27 06:00:00 12.2 4 Norte 9 Noroeste 0 -- -- 99
2018-06-27 05:00:00 12.6 3 Noroeste 9 Norte 0 -- -- 99
2018-06-27 04:00:00 13 5 Norte 9 Noroeste 0 -- -- 98
2018-06-27 03:00:00 13.4 5 Norte 10 Norte 0 -- -- 97
2018-06-27 02:00:00 14 4 Norte 9 Noroeste 0 -- -- 96
2018-06-27 01:00:00 14.6 4 Norte 10 Norte 0 -- -- 95
2018-06-27 00:00:00 15.5 4 Norte 9 Norte 0 -- -- 92
2018-06-26 23:00:00 16.5 4 Norte 9 Norte 0 -- -- 89
2018-06-26 22:00:00 18.4 4 Noroeste 10 Norte 0 -- -- 83
2018-06-26 21:00:00 21.3 6 Nordeste 24 Nordeste 0 -- -- 66
2018-06-26 20:00:00 24.8 13 Nordeste 29 Este 0 -- -- 58
2018-06-26 19:00:00 26 19 Nordeste 31 Nordeste 0 -- -- 59
2018-06-26 18:00:00 26.7 21 Nordeste 31 Nordeste 0 -- -- 58
2018-06-26 17:00:00 28.3 13 Nordeste 25 Nordeste 0 -- -- 57
2018-06-26 16:00:00 30.2 5 Sudoeste 14 Sur 0 -- -- 55
2018-06-26 15:00:00 29.1 9 Sur 18 Sur 0 -- -- 50
2018-06-26 14:00:00 28.4 8 Sur 16 Oeste 0 -- -- 51
2018-06-26 13:00:00 27 9 Sur 20 Sudoeste 0 -- -- 52
2018-06-26 12:00:00 25.6 10 Sur 18 Sur 0 -- -- 58
2018-06-26 11:00:00 23.9 8 Sur 14 Sur 0 -- -- 62
2018-06-26 10:00:00 21.3 0 Calma 5 Nordeste 0 -- -- 69
2018-06-26 09:00:00 15.5 2 Norte 8 Norte 0 -- -- 86
2018-06-26 08:00:00 11 4 Norte 9 Norte 0 -- -- 100
2018-06-26 07:00:00 9.9 4 Norte 9 Norte 0 -- -- 100
2018-06-26 06:00:00 10.2 4 Norte 11 Norte 0 -- -- 99
2018-06-26 05:00:00 10.5 5 Norte 10 Norte 0 -- -- 99
2018-06-26 04:00:00 11.1 4 Norte 11 Noroeste 0 -- -- 98
2018-06-26 03:00:00 11.7 5 Norte 12 Norte 0 -- -- 97
2018-06-26 02:00:00 12.5 4 Norte 14 Norte 0 -- -- 96
2018-06-26 01:00:00 13.3 6 Norte 15 Norte 0 -- -- 95
2018-06-26 00:00:00 14.1 8 Norte 17 Norte 0 -- -- 94
2018-06-25 23:00:00 15.4 9 Norte 14 Norte 0 -- -- 90
2018-06-25 22:00:00 17.9 6 Nordeste 23 Nordeste 0 -- -- 79
2018-06-25 21:00:00 20 18 Nordeste 32 Nordeste 0 -- -- 70
2018-06-25 20:00:00 22.9 21 Nordeste 35 Nordeste 0 -- -- 60
2018-06-25 19:00:00 24.6 24 Nordeste 34 Nordeste 0 -- -- 60
2018-06-25 18:00:00 24.5 25 Nordeste 36 Nordeste 0 -- -- 60
2018-06-25 17:00:00 26.9 23 Nordeste 30 Nordeste 0 -- -- 53
2018-06-25 16:00:00 27.4 20 Nordeste 32 Nordeste 0 -- -- 51
2018-06-25 15:00:00 29.2 13 Nordeste 21 Nordeste 0 -- -- 46
2018-06-25 14:00:00 30.3 0 Calma 14 Sur 0 -- -- 41
2018-06-25 13:00:00 26.4 8 Sur 13 Sudoeste 0 -- -- 44
2018-06-25 12:00:00 24.6 8 Sur 17 Sur 0 -- -- 45
2018-06-25 11:00:00 24.8 2 Sudoeste 9 Nordeste 0 -- -- 51
2018-06-25 10:00:00 20 0 Calma 5 Norte 0 -- -- 60
2018-06-25 09:00:00 14.5 2 Nordeste 9 Noroeste 0 -- -- 75
2018-06-25 08:00:00 9 3 Norte 11 Norte 0 -- -- 99
2018-06-25 07:00:00 8.2 3 Norte 10 Norte 0 -- -- 98
2018-06-25 06:00:00 8.6 5 Norte 9 Norte 0 -- -- 98
2018-06-25 05:00:00 9.2 4 Norte 10 Norte 0 -- -- 97
2018-06-25 04:00:00 10 7 Norte 14 Noroeste 0 -- -- 97
2018-06-25 03:00:00 10.7 5 Norte 12 Noroeste 0 -- -- 96
2018-06-25 02:00:00 11.7 6 Noroeste 15 Noroeste 0 -- -- 92
2018-06-25 01:00:00 13.3 9 Norte 23 Norte 0 -- -- 86
2018-06-25 00:00:00 14.6 15 Norte 26 Norte 0 -- -- 81
2018-06-24 23:00:00 15.9 10 Norte 23 Este 0 -- -- 74
2018-06-24 22:00:00 18 18 Nordeste 28 Nordeste 0 -- -- 63
2018-06-24 21:00:00 19.6 18 Nordeste 27 Nordeste 0 -- -- 61
2018-06-24 20:00:00 22.8 13 Nordeste 32 Este 0 -- -- 52
2018-06-24 19:00:00 25.1 12 Nordeste 33 Nordeste 0 -- -- 46
2018-06-24 18:00:00 25.8 15 Este 36 Nordeste 0 -- -- 45
2018-06-24 17:00:00 26.8 18 Nordeste 31 Nordeste 0 -- -- 47
2018-06-24 16:00:00 27.5 19 Nordeste 30 Nordeste 0 -- -- 42
2018-06-24 15:00:00 28.2 15 Nordeste 28 Nordeste 0 -- -- 41
2018-06-24 14:00:00 28.3 11 Norte 19 Noroeste 0 -- -- 40
2018-06-24 13:00:00 28.6 5 Norte 12 Norte 0 -- -- 41
2018-06-24 12:00:00 25.7 0 Calma 9 Sudoeste 0 -- -- 55
2018-06-24 11:00:00 22.2 4 Sur 9 Sudoeste 0 -- -- 65
2018-06-24 10:00:00 19.1 0 Calma 5 Nordeste 0 -- -- 69
2018-06-24 09:00:00 14.3 0 Calma 8 Noroeste 0 -- -- 83
2018-06-24 08:00:00 9.1 4 Norte 11 Norte 0 -- -- 100
2018-06-24 07:00:00 8.4 4 Norte 10 Noroeste 0 -- -- 100
2018-06-24 06:00:00 8.5 5 Norte 11 Norte 0 -- -- 99
2018-06-24 05:00:00 8.9 4 Norte 9 Norte 0 -- -- 99
2018-06-24 04:00:00 9.3 4 Norte 11 Norte 0 -- -- 98
2018-06-24 03:00:00 9.9 5 Norte 17 Norte 0 -- -- 96
2018-06-24 02:00:00 10.6 5 Norte 15 Norte 0 -- -- 96
2018-06-24 01:00:00 11.2 6 Norte 16 Noroeste 0 -- -- 95
2018-06-24 00:00:00 12 8 Noroeste 16 Norte 0 -- -- 92
2018-06-23 23:00:00 13.3 8 Noroeste 15 Norte 0 -- -- 88
2018-06-23 22:00:00 15.9 5 Norte 26 Nordeste 0 -- -- 77
2018-06-23 21:00:00 17.7 14 Nordeste 39 Nordeste 0 -- -- 71
2018-06-23 20:00:00 20.1 18 Nordeste 39 Nordeste 0 -- -- 64
2018-06-23 19:00:00 21.3 23 Nordeste 48 Nordeste 0 -- -- 64
2018-06-23 18:00:00 22.6 31 Nordeste 41 Este 0 -- -- 62
2018-06-23 17:00:00 24.3 26 Nordeste 38 Nordeste 0 -- -- 56
2018-06-23 16:00:00 24.8 24 Nordeste 36 Nordeste 0 -- -- 56
2018-06-23 15:00:00 25.5 21 Nordeste 31 Nordeste 0 -- -- 54
2018-06-23 14:00:00 24.9 22 Nordeste 32 Nordeste 0 -- -- 53
2018-06-23 13:00:00 24.6 22 Nordeste 30 Nordeste 0 -- -- 51
2018-06-23 12:00:00 25 13 Nordeste 22 Nordeste 0 -- -- 54
2018-06-23 11:00:00 23.9 10 Nordeste 23 Nordeste 0 -- -- 57
2018-06-23 10:00:00 20.1 6 Nordeste 12 Nordeste 0 -- -- 70
2018-06-23 09:00:00 14.7 0 Calma 6 Noroeste 0 -- -- 81
2018-06-23 08:00:00 10.1 2 Norte 6 Norte 0 -- -- 100
2018-06-23 07:00:00 9 4 Norte 9 Norte 0 -- -- 99
2018-06-23 06:00:00 9.3 4 Norte 9 Norte 0 -- -- 99
2018-06-23 05:00:00 9.9 5 Norte 12 Norte 0 -- -- 98
2018-06-23 04:00:00 10.7 7 Noroeste 12 Norte 0 -- -- 96
2018-06-23 03:00:00 12.8 5 Noroeste 23 Nordeste 0 -- -- 87
2018-06-23 02:00:00 14.9 13 Nordeste 35 Este 0 -- -- 83
2018-06-23 01:00:00 15.3 10 Nordeste 28 Nordeste 0 -- -- 82
2018-06-23 00:00:00 15.6 9 Nordeste 36 Este 0 -- -- 80
2018-06-22 23:00:00 16.2 11 Nordeste 30 Nordeste 0 -- -- 81
2018-06-22 22:00:00 17.1 14 Norte 40 Norte 0 -- -- 80
2018-06-22 21:00:00 17.9 14 Nordeste 44 Norte 0 -- -- 75
2018-06-22 20:00:00 20.3 15 Nordeste 43 Este 0 -- -- 68
2018-06-22 19:00:00 21.9 17 Nordeste 54 Nordeste 0 -- -- 64
2018-06-22 18:00:00 21.5 29 Nordeste 59 Nordeste 0 -- -- 63
2018-06-22 17:00:00 21.7 36 Nordeste 57 Nordeste 0 -- -- 64
2018-06-22 16:00:00 22 39 Nordeste 55 Nordeste 0 -- -- 67
2018-06-22 15:00:00 22.9 31 Nordeste 52 Nordeste 0 -- -- 65
2018-06-22 14:00:00 23 31 Nordeste 49 Nordeste 0 -- -- 63
2018-06-22 13:00:00 24 26 Nordeste 42 Nordeste 0 -- -- 63
2018-06-22 12:00:00 23.1 26 Nordeste 46 Nordeste 0 -- -- 64
2018-06-22 11:00:00 22.3 26 Nordeste 42 Nordeste 0 -- -- 68
2018-06-22 10:00:00 20.5 22 Nordeste 42 Este 0 -- -- 75
2018-06-22 09:00:00 19.7 9 Nordeste 26 Este 0 -- -- 82
2018-06-22 08:00:00 15.3 6 Norte 17 Noroeste 0 -- -- 95
2018-06-22 07:00:00 14.4 6 Noroeste 14 Norte 0 -- -- 95
2018-06-22 06:00:00 13.6 6 Norte 13 Norte 0 -- -- 97
2018-06-22 05:00:00 14.2 6 Norte 14 Nordeste 0 -- -- 95
2018-06-22 04:00:00 15.2 6 Nordeste 17 Nordeste 0 -- -- 90
2018-06-22 03:00:00 15.3 4 Noroeste 9 Noroeste 0 -- -- 87
2018-06-22 02:00:00 16.2 4 Noroeste 22 Nordeste 0 -- -- 82
2018-06-22 01:00:00 17.3 9 Norte 31 Nordeste 0 -- -- 77
2018-06-22 00:00:00 18.7 12 Norte 35 Norte 0 -- -- 73
2018-06-21 23:00:00 19.3 15 Nordeste 29 Nordeste 0 -- -- 68
2018-06-21 22:00:00 19.9 14 Nordeste 40 Este 0 -- -- 68
2018-06-21 21:00:00 21.1 18 Nordeste 35 Nordeste 0 -- -- 66
2018-06-21 20:00:00 24.1 14 Nordeste 32 Este 0 -- -- 56
2018-06-21 19:00:00 25.4 14 Este 35 Nordeste 0 -- -- 53
2018-06-21 18:00:00 25.1 19 Nordeste 44 Nordeste 0 -- -- 58
2018-06-21 17:00:00 26.7 24 Nordeste 42 Nordeste 0 -- -- 55
2018-06-21 16:00:00 27.8 20 Nordeste 35 Este 0 -- -- 55
2018-06-21 15:00:00 28.8 16 Nordeste 33 Este 0 -- -- 51
2018-06-21 14:00:00 28.9 19 Nordeste 30 Nordeste 0 -- -- 49
2018-06-21 13:00:00 29 16 Nordeste 25 Nordeste 0 -- -- 48
2018-06-21 12:00:00 27.8 8 Norte 14 Norte 0 -- -- 58
2018-06-21 11:00:00 26.6 0 Calma 5 Nordeste 0 -- -- 58
2018-06-21 10:00:00 22.9 0 Calma 5 Norte 0 -- -- 73
2018-06-21 09:00:00 18.6 2 Norte 8 Norte 0 -- -- 85
2018-06-21 08:00:00 14.5 4 Norte 10 Norte 0 -- -- 100
2018-06-21 07:00:00 14 5 Norte 12 Norte 0 -- -- 100
2018-06-21 06:00:00 14.2 4 Norte 9 Nordeste 0 -- -- 100
2018-06-21 05:00:00 14.9 4 Nordeste 11 Nordeste 0 -- -- 99
2018-06-21 04:00:00 15.7 5 Nordeste 10 Nordeste 0 -- -- 99
2018-06-21 03:00:00 16.5 2 Norte 6 Noroeste 0 -- -- 99
2018-06-21 02:00:00 17 4 Norte 10 Nordeste 0 -- -- 99
2018-06-21 01:00:00 17.4 3 Norte 8 Nordeste 0 -- -- 98
2018-06-21 00:00:00 17.7 2 Norte 6 Nordeste 0 -- -- 98
2018-06-20 23:00:00 18.3 3 Norte 6 Norte 0 -- -- 96
2018-06-20 22:00:00 19.3 0 Calma 8 Este 0 -- -- 92
2018-06-20 21:00:00 21.3 2 Norte 12 Nordeste 0 -- -- 77
2018-06-20 20:00:00 21 5 Nordeste 37 Nordeste 0.6 -- -- 88
2018-06-20 19:00:00 25.9 17 Nordeste 27 Este 0 -- -- 59
2018-06-20 18:00:00 24.4 15 Nordeste 29 Este 0 -- -- 65
2018-06-20 17:00:00 27.9 5 Sudoeste 15 Sudoeste 0 -- -- 44
2018-06-20 16:00:00 29.4 9 Sudoeste 19 Sudoeste 0 -- -- 40
2018-06-20 15:00:00 29 10 Sur 27 Sudoeste 0 -- -- 44
2018-06-20 14:00:00 27.5 11 Sur 23 Sudoeste 0 -- -- 44
2018-06-20 13:00:00 26.6 10 Sudoeste 23 Sur 0 -- -- 43
2018-06-20 12:00:00 25.5 11 Sur 26 Sudoeste 0 -- -- 48
2018-06-20 11:00:00 24.1 13 Sudoeste 24 Sudoeste 0 -- -- 51
2018-06-20 10:00:00 20.7 2 Nordeste 8 Nordeste 0 -- -- 76
2018-06-20 09:00:00 15.2 0 Calma 5 Noroeste 0 -- -- 97
2018-06-20 08:00:00 11.4 3 Norte 6 Nordeste 0 -- -- 100
2018-06-20 07:00:00 10.7 3 Norte 8 Norte 0 -- -- 100
2018-06-20 06:00:00 10.5 3 Norte 7 Norte 0 -- -- 100
2018-06-20 05:00:00 10.6 3 Norte 7 Norte 0 -- -- 100
2018-06-20 04:00:00 11.1 2 Norte 9 Norte 0 -- -- 100
2018-06-20 03:00:00 11.6 4 Norte 8 Norte 0 -- -- 100
2018-06-20 02:00:00 12.3 4 Norte 9 Norte 0 -- -- 99
2018-06-20 01:00:00 13 3 Norte 8 Norte 0 -- -- 99
2018-06-20 00:00:00 13.7 4 Norte 8 Noroeste 0 -- -- 98
2018-06-19 23:00:00 14.7 4 Norte 10 Noroeste 0 -- -- 96
2018-06-19 22:00:00 16.3 4 Norte 22 Nordeste 0 -- -- 90
2018-06-19 21:00:00 18 12 Nordeste 33 Nordeste 0 -- -- 81
2018-06-19 20:00:00 20.3 21 Nordeste 32 Nordeste 0 -- -- 73
2018-06-19 19:00:00 22.4 22 Nordeste 32 Nordeste 0 -- -- 66
2018-06-19 18:00:00 23.5 21 Nordeste 32 Nordeste 0 -- -- 63
2018-06-19 17:00:00 24.4 11 Norte 30 Norte 0 -- -- 65
2018-06-19 16:00:00 28.1 14 Nordeste 24 Nordeste 0 -- -- 53
2018-06-19 15:00:00 26.6 9 Sudoeste 20 Sur 0 -- -- 47
2018-06-19 14:00:00 25.7 11 Sur 20 Sudoeste 0 -- -- 44
2018-06-19 13:00:00 24.7 10 Sur 20 Sudoeste 0 -- -- 43
2018-06-19 12:00:00 22.8 10 Sur 19 Sur 0 -- -- 47
2018-06-19 11:00:00 20.9 4 Sur 8 Sudoeste 0 -- -- 54
2018-06-19 10:00:00 19 0 Calma 4 Nordeste 0 -- -- 68
2018-06-19 09:00:00 14.1 2 Nordeste 7 Noroeste 0 -- -- 82
2018-06-19 08:00:00 9.1 3 Norte 9 Norte 0 -- -- 100
2018-06-19 07:00:00 8.1 3 Norte 14 Norte 0 -- -- 100
2018-06-19 06:00:00 8.2 5 Norte 13 Noroeste 0 -- -- 99
2018-06-19 05:00:00 8.8 5 Noroeste 15 Noroeste 0 -- -- 97
2018-06-19 04:00:00 10 6 Noroeste 18 Norte 0 -- -- 94
2018-06-19 03:00:00 12 5 Oeste 37 Este 0 -- -- 89
2018-06-19 02:00:00 13.7 22 Nordeste 45 Este 0 -- -- 86
2018-06-19 01:00:00 14 24 Nordeste 45 Nordeste 0 -- -- 85
2018-06-19 00:00:00 14.2 9 Nordeste 27 Nordeste 0 -- -- 82
2018-06-18 23:00:00 14.2 9 Nordeste 32 Norte 0 -- -- 82
2018-06-18 22:00:00 14.4 13 Norte 37 Norte 0 -- -- 83
2018-06-18 21:00:00 14.9 16 Norte 40 Noroeste 0 -- -- 80
2018-06-18 20:00:00 15.9 13 Norte 39 Nordeste 0 -- -- 77
2018-06-18 19:00:00 16.7 18 Nordeste 54 Nordeste 0 -- -- 74
2018-06-18 18:00:00 17.7 20 Nordeste 49 Nordeste 0 -- -- 74
2018-06-18 17:00:00 19.2 37 Nordeste 58 Nordeste 0 -- -- 66
2018-06-18 16:00:00 20.2 28 Nordeste 60 Nordeste 0 -- -- 64
2018-06-18 15:00:00 20.3 35 Nordeste 55 Nordeste 0 -- -- 61
2018-06-18 14:00:00 19.4 27 Nordeste 48 Nordeste 0 -- -- 62
2018-06-18 13:00:00 18.6 19 Nordeste 40 Nordeste 0 -- -- 67
2018-06-18 12:00:00 19.5 17 Nordeste 39 Nordeste 0 -- -- 64
2018-06-18 11:00:00 19 17 Nordeste 37 Nordeste 0 -- -- 64
2018-06-18 10:00:00 18.9 9 Nordeste 24 Este 0 -- -- 65
2018-06-18 09:00:00 16.5 11 Nordeste 30 Nordeste 0 -- -- 68
2018-06-18 08:00:00 11.5 13 Norte 33 Norte 0 -- -- 81
2018-06-18 07:00:00 10.3 12 Norte 27 Nordeste 0 -- -- 85
2018-06-18 06:00:00 10.1 5 Norte 18 Norte 0 -- -- 77
2018-06-18 05:00:00 10.6 7 Nordeste 22 Norte 0 -- -- 62
2018-06-18 04:00:00 8.5 10 Norte 27 Nordeste 0 -- -- 76
2018-06-18 03:00:00 9.7 15 Norte 36 Norte 0 -- -- 70
2018-06-18 02:00:00 9.1 12 Norte 25 Nordeste 0 -- -- 81
2018-06-18 01:00:00 9.8 16 Nordeste 31 Nordeste 0 -- -- 84
2018-06-18 00:00:00 9.5 6 Norte 17 Norte 0 -- -- 91
2018-06-17 23:00:00 11.2 9 Nordeste 26 Nordeste 0 -- -- 83
2018-06-17 22:00:00 12.2 17 Nordeste 30 Nordeste 0 -- -- 81
2018-06-17 21:00:00 13.3 14 Nordeste 44 Este 0 -- -- 77
2018-06-17 20:00:00 15.7 28 Nordeste 56 Nordeste 0 -- -- 67
2018-06-17 19:00:00 16.8 32 Nordeste 58 Nordeste 0 -- -- 64
2018-06-17 18:00:00 17.5 37 Nordeste 54 Nordeste 0 -- -- 61
2018-06-17 17:00:00 19.2 19 Nordeste 44 Nordeste 0 -- -- 56
2018-06-17 16:00:00 19.4 28 Nordeste 46 Nordeste 0 -- -- 58
2018-06-17 15:00:00 20.6 12 Nordeste 39 Este 0 -- -- 61
2018-06-17 14:00:00 20.6 18 Nordeste 45 Nordeste 0 -- -- 59
2018-06-17 13:00:00 17.7 35 Nordeste 47 Nordeste 0 -- -- 66
2018-06-17 12:00:00 17.3 28 Nordeste 48 Nordeste 0 -- -- 69
2018-06-17 11:00:00 16.7 26 Nordeste 46 Nordeste 0 -- -- 66
2018-06-17 10:00:00 15.7 14 Nordeste 29 Norte 0 -- -- 63
2018-06-17 09:00:00 12.4 15 Norte 37 Norte 0 -- -- 73
2018-06-17 08:00:00 7 4 Norte 18 Noroeste 0 -- -- 92
2018-06-17 07:00:00 5.3 4 Nordeste 16 Noroeste 0 -- -- 98
2018-06-17 06:00:00 5.4 6 Norte 14 Norte 0 -- -- 98
2018-06-17 05:00:00 5.9 9 Norte 21 Norte 0 -- -- 98
2018-06-17 04:00:00 6.7 5 Norte 17 Noroeste 0 -- -- 96
2018-06-17 03:00:00 7.3 8 Norte 19 Noroeste 0 -- -- 95
2018-06-17 02:00:00 8.7 11 Norte 27 Norte 0 -- -- 91
2018-06-17 01:00:00 9.6 12 Nordeste 30 Nordeste 0 -- -- 91
2018-06-17 00:00:00 10.5 12 Norte 36 Norte 0 -- -- 88